createdAt,value
2023-03-17T00:01:21.820Z,9.50
2023-03-17T00:03:51.665Z,9.60
2023-03-17T00:06:24.637Z,9.70
2023-03-17T00:08:53.077Z,9.90
2023-03-17T00:11:21.513Z,9.90
2023-03-17T00:13:50.020Z,10.00
2023-03-17T00:16:20.276Z,10.10
2023-03-17T00:18:51.044Z,9.90
2023-03-17T00:21:23.754Z,9.30
2023-03-17T00:23:52.904Z,9.10
2023-03-17T00:26:21.336Z,8.90
2023-03-17T00:28:51.135Z,8.90
2023-03-17T00:31:21.174Z,9.00
2023-03-17T00:33:52.263Z,9.20
2023-03-17T00:36:22.752Z,9.40
2023-03-17T00:38:52.757Z,9.40
2023-03-17T00:41:21.563Z,9.60
2023-03-17T00:43:50.755Z,9.60
2023-03-17T00:46:22.088Z,9.50
2023-03-17T00:48:52.066Z,9.40
2023-03-17T00:51:21.185Z,9.50
2023-03-17T00:53:49.700Z,9.60
2023-03-17T00:56:19.170Z,9.60
2023-03-17T00:58:48.467Z,9.60
2023-03-17T01:01:18.524Z,9.70
2023-03-17T01:03:47.109Z,9.70
2023-03-17T01:06:17.730Z,9.70
2023-03-17T01:08:46.689Z,9.40
2023-03-17T01:11:18.814Z,9.30
2023-03-17T01:13:47.790Z,9.20
2023-03-17T01:16:17.131Z,9.20
2023-03-17T01:18:45.767Z,9.10
2023-03-17T01:21:14.235Z,9.10
2023-03-17T01:23:44.145Z,9.00
2023-03-17T01:26:12.712Z,8.90
2023-03-17T01:28:42.129Z,9.00
2023-03-17T01:31:10.570Z,8.90
2023-03-17T01:33:39.081Z,8.90
2023-03-17T01:36:08.061Z,8.80
2023-03-17T01:38:36.550Z,8.70
2023-03-17T01:41:06.541Z,8.80
2023-03-17T01:43:34.949Z,8.80
2023-03-17T01:46:17.880Z,8.80
2023-03-17T01:48:48.149Z,8.90
2023-03-17T01:51:18.592Z,8.90
2023-03-17T01:53:48.192Z,9.20
2023-03-17T01:56:18.288Z,9.30
2023-03-17T01:58:48.359Z,9.40
2023-03-17T02:01:17.922Z,9.40
2023-03-17T02:03:47.186Z,9.60
2023-03-17T02:06:16.144Z,9.60
2023-03-17T02:08:44.590Z,9.50
2023-03-17T02:11:12.976Z,9.50
2023-03-17T02:13:44.833Z,9.40
2023-03-17T02:16:15.880Z,9.30
2023-03-17T02:18:44.999Z,9.40
2023-03-17T02:21:31.883Z,9.40
2023-03-17T02:24:01.809Z,9.30
2023-03-17T02:26:31.336Z,9.00
2023-03-17T02:28:59.743Z,9.00
2023-03-17T02:31:28.485Z,8.90
2023-03-17T02:33:56.944Z,9.00
2023-03-17T02:36:25.429Z,9.20
2023-03-17T02:38:55.307Z,9.20
2023-03-17T02:41:23.720Z,9.20
2023-03-17T02:43:53.776Z,9.30
2023-03-17T02:46:22.671Z,9.30
2023-03-17T02:48:51.097Z,9.30
2023-03-17T02:51:19.519Z,9.10
2023-03-17T02:53:47.956Z,8.90
2023-03-17T02:56:17.849Z,8.60
2023-03-17T02:58:46.509Z,8.80
2023-03-17T03:01:15.742Z,8.90
2023-03-17T03:03:44.184Z,9.10
2023-03-17T03:06:12.586Z,9.20
2023-03-17T03:08:41.099Z,9.30
2023-03-17T03:11:09.526Z,9.40
2023-03-17T03:13:39.293Z,9.40
2023-03-17T03:16:08.432Z,9.30
2023-03-17T03:18:37.195Z,9.10
2023-03-17T03:21:06.343Z,9.00
2023-03-17T03:23:35.085Z,9.10
2023-03-17T03:26:03.685Z,9.10
2023-03-17T03:28:32.145Z,9.20
2023-03-17T03:31:01.984Z,9.20
2023-03-17T03:33:30.436Z,9.20
2023-03-17T03:35:59.472Z,9.30
2023-03-17T03:38:28.304Z,9.20
2023-03-17T03:40:56.817Z,9.20
2023-03-17T03:43:25.750Z,9.10
2023-03-17T03:45:54.682Z,9.10
2023-03-17T03:48:24.441Z,9.20
2023-03-17T03:50:56.696Z,9.20
2023-03-17T03:53:25.308Z,9.20
2023-03-17T03:55:53.741Z,9.20
2023-03-17T03:58:22.433Z,9.20
2023-03-17T04:00:51.201Z,9.30
2023-03-17T04:03:19.663Z,9.30
2023-03-17T04:05:49.537Z,9.30
2023-03-17T04:08:17.859Z,9.20
2023-03-17T04:10:46.296Z,9.20
2023-03-17T04:13:15.517Z,9.20
2023-03-17T04:15:43.974Z,9.20
2023-03-17T04:18:13.077Z,9.20
2023-03-17T04:20:41.449Z,9.30
2023-03-17T04:23:11.252Z,9.30
2023-03-17T04:25:39.678Z,9.30
2023-03-17T04:28:09.108Z,9.30
2023-03-17T04:30:37.539Z,9.40
2023-03-17T04:33:06.070Z,9.40
2023-03-17T04:35:34.615Z,9.50
2023-03-17T04:38:03.105Z,9.40
2023-03-17T04:40:33.062Z,9.50
2023-03-17T04:43:03.471Z,9.60
2023-03-17T04:45:32.387Z,9.40
2023-03-17T04:48:00.797Z,9.30
2023-03-17T04:50:29.704Z,9.20
2023-03-17T04:52:58.228Z,9.10
2023-03-17T04:55:27.642Z,9.10
2023-03-17T04:57:57.436Z,9.00
2023-03-17T05:00:25.807Z,9.10
2023-03-17T05:02:54.281Z,9.20
2023-03-17T05:05:22.812Z,9.10
2023-03-17T05:07:51.244Z,9.10
2023-03-17T05:10:19.602Z,9.10
2023-03-17T05:12:48.041Z,9.10
2023-03-17T05:15:17.892Z,9.10
2023-03-17T05:17:46.286Z,9.00
2023-03-17T05:20:14.946Z,8.90
2023-03-17T05:22:43.344Z,9.00
2023-03-17T05:25:11.855Z,9.10
2023-03-17T05:27:40.695Z,9.10
2023-03-17T05:30:09.802Z,9.00
2023-03-17T05:32:40.352Z,9.10
2023-03-17T05:35:09.206Z,9.10
2023-03-17T05:37:38.077Z,9.20
2023-03-17T05:40:06.736Z,9.10
2023-03-17T05:42:35.196Z,9.20
2023-03-17T05:45:05.205Z,9.20
2023-03-17T05:47:33.830Z,9.20
2023-03-17T05:50:04.857Z,9.20
2023-03-17T05:52:33.356Z,9.10
2023-03-17T05:55:01.775Z,9.10
2023-03-17T05:57:30.367Z,9.20
2023-03-17T05:59:59.048Z,9.20
2023-03-17T06:02:27.554Z,9.30
2023-03-17T06:04:56.023Z,9.30
2023-03-17T06:07:25.849Z,9.40
2023-03-17T06:09:54.264Z,9.40
2023-03-17T06:12:22.671Z,9.50
2023-03-17T06:14:51.120Z,9.40
2023-03-17T06:17:19.583Z,9.40
2023-03-17T06:19:49.486Z,9.40
2023-03-17T06:22:17.974Z,9.40
2023-03-17T06:24:47.943Z,9.40
2023-03-17T06:27:16.344Z,9.50
2023-03-17T06:29:44.708Z,9.60
2023-03-17T06:32:20.169Z,9.70
2023-03-17T06:34:49.351Z,9.70
2023-03-17T06:37:17.816Z,9.80
2023-03-17T06:39:48.274Z,9.90
2023-03-17T06:42:16.761Z,9.80
2023-03-17T06:44:45.423Z,9.70
2023-03-17T06:47:14.269Z,9.60
2023-03-17T06:49:42.631Z,9.60
2023-03-17T06:52:11.154Z,9.80
2023-03-17T06:54:39.699Z,9.90
2023-03-17T06:57:09.620Z,10.10
2023-03-17T06:59:38.256Z,10.10
2023-03-17T07:02:06.753Z,9.90
2023-03-17T07:04:37.638Z,9.90
2023-03-17T07:07:06.388Z,10.10
2023-03-17T07:09:35.579Z,10.20
2023-03-17T07:12:05.210Z,10.30
2023-03-17T07:14:36.719Z,10.50
2023-03-17T07:17:05.516Z,10.30
2023-03-17T07:19:35.085Z,10.50
2023-03-17T07:22:03.535Z,10.40
2023-03-17T07:24:32.071Z,10.40
2023-03-17T07:27:00.599Z,10.60
2023-03-17T07:29:29.355Z,10.70
2023-03-17T07:31:59.172Z,10.90
2023-03-17T07:34:28.347Z,10.80
2023-03-17T07:36:56.839Z,10.70
2023-03-17T07:39:25.249Z,10.70
2023-03-17T07:41:55.364Z,10.70
2023-03-17T07:44:23.975Z,10.90
2023-03-17T07:46:52.676Z,10.80
2023-03-17T07:49:34.285Z,10.90
2023-03-17T07:52:09.430Z,10.90
2023-03-17T07:54:38.128Z,11.00
2023-03-17T07:57:06.683Z,11.00
2023-03-17T07:59:35.093Z,11.10
2023-03-17T08:02:03.938Z,11.20
2023-03-17T08:04:34.654Z,11.40
2023-03-17T08:07:03.263Z,11.40
2023-03-17T08:09:32.029Z,11.60
2023-03-17T08:12:00.485Z,11.80
2023-03-17T08:14:28.925Z,11.90
2023-03-17T08:16:57.476Z,12.00
2023-03-17T08:19:25.979Z,12.10
2023-03-17T08:21:55.761Z,12.40
2023-03-17T08:24:24.202Z,12.60
2023-03-17T08:26:52.770Z,12.50
2023-03-17T08:29:21.242Z,12.60
2023-03-17T08:31:49.670Z,12.60
2023-03-17T08:34:18.145Z,12.60
2023-03-17T08:36:46.545Z,13.00
2023-03-17T08:39:16.323Z,13.10
2023-03-17T08:41:45.151Z,13.10
2023-03-17T08:44:14.774Z,13.00
2023-03-17T08:46:43.264Z,12.90
2023-03-17T08:49:12.670Z,12.90
2023-03-17T08:51:41.871Z,12.80
2023-03-17T08:54:10.247Z,12.90
2023-03-17T08:56:41.979Z,13.10
2023-03-17T08:59:10.943Z,12.90
2023-03-17T09:01:40.249Z,12.90
2023-03-17T09:04:08.978Z,12.60
2023-03-17T09:06:37.646Z,12.70
2023-03-17T09:09:06.931Z,12.60
2023-03-17T09:11:35.788Z,12.60
2023-03-17T09:14:05.823Z,12.80
2023-03-17T09:16:35.006Z,12.80
2023-03-17T09:19:06.358Z,12.60
2023-03-17T09:21:34.729Z,12.50
2023-03-17T09:24:03.158Z,12.40
2023-03-17T09:26:31.676Z,12.70
2023-03-17T09:29:00.140Z,12.60
2023-03-17T09:31:30.143Z,12.80
2023-03-17T09:33:58.928Z,13.00
2023-03-17T09:36:27.408Z,12.90
2023-03-17T09:38:55.895Z,12.80
2023-03-17T09:41:47.194Z,12.90
2023-03-17T09:44:19.108Z,13.20
2023-03-17T09:46:51.435Z,13.30
2023-03-17T09:49:22.800Z,13.20
2023-03-17T09:51:51.293Z,13.20
2023-03-17T09:54:22.174Z,13.30
2023-03-17T09:56:52.499Z,13.40
2023-03-17T09:59:29.647Z,13.20
2023-03-17T10:01:59.992Z,13.10
2023-03-17T10:04:29.015Z,12.70
2023-03-17T10:07:01.759Z,12.80
2023-03-17T10:09:35.283Z,12.80
2023-03-17T10:12:05.856Z,12.60
2023-03-17T10:14:43.147Z,12.40
2023-03-17T10:17:18.641Z,12.60
2023-03-17T10:19:49.346Z,12.40
2023-03-17T10:22:21.749Z,12.60
2023-03-17T10:24:51.581Z,12.60
2023-03-17T10:27:20.175Z,12.80
2023-03-17T10:29:51.297Z,12.80
2023-03-17T10:32:21.575Z,12.80
2023-03-17T10:34:50.104Z,12.70
2023-03-17T10:37:19.310Z,12.50
2023-03-17T10:39:49.162Z,12.70
2023-03-17T10:42:23.156Z,12.50
2023-03-17T10:44:53.612Z,12.60
2023-03-17T10:47:26.218Z,12.50
2023-03-17T10:49:55.785Z,12.50
2023-03-17T10:52:27.462Z,12.50
2023-03-17T10:54:56.050Z,12.50
2023-03-17T10:57:24.483Z,12.40
2023-03-17T10:59:54.146Z,12.30
2023-03-17T11:02:27.239Z,12.30
2023-03-17T11:04:56.731Z,12.40
2023-03-17T11:07:29.486Z,12.40
2023-03-17T11:09:59.466Z,12.40
2023-03-17T11:12:29.647Z,12.80
2023-03-17T11:15:00.948Z,12.90
2023-03-17T11:17:38.993Z,12.80
2023-03-17T11:20:22.066Z,12.70
2023-03-17T11:22:54.444Z,12.80
2023-03-17T11:25:23.607Z,12.70
2023-03-17T11:27:55.305Z,12.60
2023-03-17T11:30:29.279Z,12.60
2023-03-17T11:33:01.042Z,12.70
2023-03-17T11:35:50.521Z,12.70
2023-03-17T11:38:24.525Z,12.90
2023-03-17T11:41:03.502Z,12.90
2023-03-17T11:43:34.332Z,13.00
2023-03-17T11:46:05.078Z,12.80
2023-03-17T11:48:40.767Z,12.80
2023-03-17T11:51:13.433Z,12.90
2023-03-17T11:53:52.073Z,12.80
2023-03-17T11:56:21.749Z,12.50
2023-03-17T11:58:53.171Z,12.70
2023-03-17T12:01:27.221Z,12.90
2023-03-17T12:04:10.459Z,12.80
2023-03-17T12:06:41.391Z,13.00
2023-03-17T12:09:18.560Z,13.10
2023-03-17T12:11:47.717Z,13.20
2023-03-17T12:14:24.777Z,13.00
2023-03-17T12:16:54.906Z,12.90
2023-03-17T12:19:26.214Z,12.90
2023-03-17T12:21:56.864Z,12.70
2023-03-17T12:24:28.854Z,12.70
2023-03-17T12:26:59.382Z,12.90
2023-03-17T12:29:33.647Z,13.10
2023-03-17T12:32:04.669Z,12.80
2023-03-17T12:34:40.200Z,12.70
2023-03-17T12:37:09.842Z,12.90
2023-03-17T12:39:40.528Z,13.00
2023-03-17T12:42:17.819Z,12.80
2023-03-17T12:45:01.790Z,12.70
2023-03-17T12:47:39.594Z,12.80
2023-03-17T12:50:20.205Z,12.80
2023-03-17T12:52:57.905Z,12.60
2023-03-17T12:55:28.018Z,12.60
2023-03-17T12:58:01.183Z,12.70
2023-03-17T13:00:30.991Z,12.60
2023-03-17T13:03:10.691Z,12.50
2023-03-17T13:05:40.613Z,12.60
2023-03-17T13:08:23.345Z,12.70
2023-03-17T13:10:52.349Z,12.70
2023-03-17T13:13:23.541Z,12.70
2023-03-17T13:15:54.300Z,12.60
2023-03-17T13:18:24.670Z,12.60
2023-03-17T13:21:10.452Z,12.70
2023-03-17T13:23:41.217Z,12.80
2023-03-17T13:26:12.370Z,12.90
2023-03-17T13:28:48.798Z,13.00
2023-03-17T13:31:32.097Z,12.90
2023-03-17T13:34:04.551Z,12.70
2023-03-17T13:36:39.673Z,12.80
2023-03-17T13:39:20.523Z,12.70
2023-03-17T13:42:01.139Z,12.70
2023-03-17T13:44:37.746Z,12.80
2023-03-17T13:47:17.363Z,12.60
2023-03-17T13:49:48.446Z,12.60
2023-03-17T13:52:19.348Z,12.40
2023-03-17T13:54:49.250Z,12.20
2023-03-17T13:57:24.770Z,12.30
2023-03-17T14:00:01.017Z,12.30
2023-03-17T14:02:31.702Z,12.30
2023-03-17T14:05:01.660Z,12.30
2023-03-17T14:07:33.611Z,12.50
2023-03-17T14:10:05.103Z,12.40
2023-03-17T14:12:38.025Z,12.40
2023-03-17T14:15:09.346Z,12.40
2023-03-17T14:17:41.571Z,12.40
2023-03-17T14:20:20.934Z,12.20
2023-03-17T14:22:54.585Z,12.30
2023-03-17T14:25:24.169Z,12.20
2023-03-17T14:27:54.560Z,12.20
2023-03-17T14:30:23.851Z,12.20
2023-03-17T14:33:01.527Z,12.30
2023-03-17T14:35:33.761Z,12.30
2023-03-17T14:38:04.304Z,12.40
2023-03-17T14:40:36.965Z,12.50
2023-03-17T14:43:05.526Z,12.50
2023-03-17T14:45:44.164Z,12.40
2023-03-17T14:48:14.875Z,12.30
2023-03-17T14:50:50.846Z,12.40
2023-03-17T14:53:20.888Z,12.40
2023-03-17T14:55:49.469Z,12.50
2023-03-17T14:58:22.443Z,12.50
2023-03-17T15:00:55.550Z,12.50
2023-03-17T15:03:25.881Z,12.60
2023-03-17T15:06:04.152Z,12.40
2023-03-17T15:08:46.279Z,12.20
2023-03-17T15:11:19.408Z,12.40
2023-03-17T15:13:48.191Z,12.30
2023-03-17T15:16:18.724Z,12.30
2023-03-17T15:18:47.428Z,12.40
2023-03-17T15:21:28.495Z,12.20
2023-03-17T15:23:58.321Z,12.30
2023-03-17T15:26:31.555Z,12.40
2023-03-17T15:29:00.580Z,12.40
2023-03-17T15:31:30.256Z,12.40
2023-03-17T15:33:59.493Z,12.20
2023-03-17T15:36:32.735Z,12.10
2023-03-17T15:39:03.738Z,12.00
2023-03-17T15:41:32.125Z,12.10
2023-03-17T15:44:00.526Z,12.20
2023-03-17T15:46:32.658Z,12.00
2023-03-17T15:49:01.467Z,12.20
2023-03-17T15:51:29.814Z,12.00
2023-03-17T15:53:58.175Z,11.90
2023-03-17T15:56:28.032Z,11.90
2023-03-17T15:58:56.656Z,11.90
2023-03-17T16:01:27.792Z,11.90
2023-03-17T16:03:56.533Z,12.10
2023-03-17T16:06:25.582Z,12.20
2023-03-17T16:08:53.974Z,12.20
2023-03-17T16:11:28.301Z,12.10
2023-03-17T16:13:59.155Z,12.10
2023-03-17T16:16:33.170Z,12.00
2023-03-17T16:19:01.907Z,11.90
2023-03-17T16:21:30.750Z,11.80
2023-03-17T16:23:59.379Z,11.80
2023-03-17T16:26:28.220Z,11.90
2023-03-17T16:28:58.031Z,11.80
2023-03-17T16:31:29.448Z,11.70
2023-03-17T16:33:58.377Z,11.70
2023-03-17T16:36:27.158Z,11.60
2023-03-17T16:38:55.566Z,11.50
2023-03-17T16:41:24.778Z,11.50
2023-03-17T16:43:55.322Z,11.40
2023-03-17T16:46:27.428Z,11.50
2023-03-17T16:48:56.260Z,11.50
2023-03-17T16:51:25.010Z,11.40
2023-03-17T16:53:53.435Z,11.40
2023-03-17T16:56:23.073Z,11.40
2023-03-17T16:58:51.541Z,11.40
2023-03-17T17:01:21.809Z,11.40
2023-03-17T17:03:51.819Z,11.40
2023-03-17T17:06:21.266Z,11.40
2023-03-17T17:08:50.299Z,11.20
2023-03-17T17:11:19.317Z,11.20
2023-03-17T17:13:48.524Z,11.20
2023-03-17T17:16:20.192Z,11.30
2023-03-17T17:18:48.745Z,11.20
2023-03-17T17:21:18.594Z,11.20
2023-03-17T17:23:47.099Z,11.20
2023-03-17T17:26:15.814Z,11.20
2023-03-17T17:28:44.224Z,11.20
2023-03-17T17:31:12.774Z,11.20
2023-03-17T17:33:41.305Z,11.20
2023-03-17T17:36:14.016Z,11.20
2023-03-17T17:38:44.017Z,11.20
2023-03-17T17:41:12.874Z,11.20
2023-03-17T17:43:41.703Z,11.20
2023-03-17T17:46:11.770Z,11.30
2023-03-17T17:48:40.412Z,11.30
2023-03-17T17:51:08.888Z,11.30
2023-03-17T17:53:37.331Z,11.30
2023-03-17T17:56:07.619Z,11.30
2023-03-17T17:58:36.121Z,11.30
2023-03-17T18:01:05.592Z,11.30
2023-03-17T18:03:34.185Z,11.30
2023-03-17T18:06:02.757Z,11.30
2023-03-17T18:08:31.217Z,11.30
2023-03-17T18:10:59.656Z,11.30
2023-03-17T18:13:29.587Z,11.30
2023-03-17T18:15:58.003Z,11.30
2023-03-17T18:18:26.402Z,11.30
2023-03-17T18:20:55.068Z,11.30
2023-03-17T18:23:23.445Z,11.30
2023-03-17T18:25:52.067Z,11.30
2023-03-17T18:28:20.862Z,11.30
2023-03-17T18:30:50.757Z,11.20
2023-03-17T18:33:20.170Z,11.20
2023-03-17T18:35:49.339Z,11.20
2023-03-17T18:38:17.975Z,11.20
2023-03-17T18:40:46.519Z,11.20
2023-03-17T18:43:15.043Z,11.20
2023-03-17T18:45:43.552Z,11.20
2023-03-17T18:48:13.404Z,11.20
2023-03-17T18:50:41.809Z,11.20
2023-03-17T18:53:10.273Z,11.10
2023-03-17T18:55:38.740Z,11.10
2023-03-17T18:58:07.515Z,11.10
2023-03-17T19:00:36.312Z,11.10
2023-03-17T19:03:04.780Z,11.10
2023-03-17T19:05:36.309Z,11.00
2023-03-17T19:08:04.912Z,11.00
2023-03-17T19:10:33.767Z,11.10
2023-03-17T19:13:02.441Z,11.10
2023-03-17T19:15:30.797Z,11.10
2023-03-17T19:17:59.264Z,11.20
2023-03-17T19:20:27.815Z,11.20
2023-03-17T19:22:58.489Z,11.20
2023-03-17T19:25:27.271Z,11.10
2023-03-17T19:27:55.946Z,11.10
2023-03-17T19:30:24.357Z,11.00
2023-03-17T19:32:52.875Z,11.00
2023-03-17T19:35:22.238Z,11.00
2023-03-17T19:37:50.884Z,11.10
2023-03-17T19:40:20.815Z,11.00
2023-03-17T19:42:49.575Z,10.90
2023-03-17T19:45:18.012Z,10.90
2023-03-17T19:47:47.115Z,10.60
2023-03-17T19:50:16.182Z,10.50
2023-03-17T19:52:45.992Z,10.30
2023-03-17T19:55:14.448Z,10.20
2023-03-17T19:57:44.278Z,10.10
2023-03-17T20:00:13.127Z,10.00
2023-03-17T20:02:41.645Z,9.90
2023-03-17T20:05:10.406Z,9.90
2023-03-17T20:07:38.879Z,9.90
2023-03-17T20:10:08.023Z,10.00
2023-03-17T20:12:38.064Z,9.90
2023-03-17T20:15:08.903Z,9.90
2023-03-17T20:17:37.521Z,9.80
2023-03-17T20:20:07.445Z,9.70
2023-03-17T20:22:36.009Z,9.60
2023-03-17T20:25:04.607Z,9.50
2023-03-17T20:27:35.895Z,9.50
2023-03-17T20:30:04.493Z,9.60
2023-03-17T20:32:34.468Z,9.60
2023-03-17T20:35:02.922Z,9.50
2023-03-17T20:37:31.725Z,9.50
2023-03-17T20:40:02.122Z,9.40
2023-03-17T20:42:30.563Z,9.30
2023-03-17T20:44:59.147Z,9.30
2023-03-17T20:47:28.285Z,9.30
2023-03-17T20:49:59.516Z,9.40
2023-03-17T20:52:30.200Z,9.40
2023-03-17T20:54:59.551Z,9.50
2023-03-17T20:57:28.761Z,9.60
2023-03-17T20:59:58.173Z,9.70
2023-03-17T21:02:26.978Z,9.80
2023-03-17T21:04:55.398Z,9.80
2023-03-17T21:07:26.444Z,9.90
2023-03-17T21:09:56.572Z,10.00
2023-03-17T21:12:26.241Z,9.90
2023-03-17T21:14:54.645Z,9.90
2023-03-17T21:17:24.555Z,9.80
2023-03-17T21:19:54.656Z,9.70
2023-03-17T21:22:23.048Z,9.60
2023-03-17T21:24:53.130Z,9.70
2023-03-17T21:27:21.540Z,9.80
2023-03-17T21:29:50.016Z,9.80
2023-03-17T21:32:18.484Z,9.80
2023-03-17T21:34:47.934Z,9.80
2023-03-17T21:37:18.643Z,9.60
2023-03-17T21:39:47.062Z,9.50
2023-03-17T21:42:16.939Z,9.40
2023-03-17T21:44:45.863Z,9.30
2023-03-17T21:47:14.314Z,9.20
2023-03-17T21:49:42.671Z,9.10
2023-03-17T21:52:11.334Z,9.10
2023-03-17T21:54:39.670Z,9.10
2023-03-17T21:57:08.131Z,9.00
2023-03-17T21:59:38.714Z,9.20
2023-03-17T22:02:07.198Z,9.00
2023-03-17T22:04:35.569Z,9.00
2023-03-17T22:07:04.589Z,9.00
2023-03-17T22:09:33.032Z,9.00
2023-03-17T22:12:01.530Z,9.00
2023-03-17T22:14:30.485Z,9.10
2023-03-17T22:17:00.262Z,9.00
2023-03-17T22:19:29.437Z,8.90
2023-03-17T22:21:57.868Z,8.80
2023-03-17T22:24:26.273Z,9.00
2023-03-17T22:26:55.742Z,9.00
2023-03-17T22:29:24.432Z,8.90
2023-03-17T22:31:53.020Z,8.80
2023-03-17T22:34:23.398Z,8.80
2023-03-17T22:36:51.792Z,8.80
2023-03-17T22:39:20.229Z,8.80
2023-03-17T22:41:48.674Z,8.80
2023-03-17T22:44:17.222Z,8.90
2023-03-17T22:46:45.602Z,8.80
2023-03-17T22:49:14.044Z,8.80
2023-03-17T22:51:43.897Z,8.70
2023-03-17T22:54:13.194Z,8.60
2023-03-17T22:56:41.605Z,8.60
2023-03-17T22:59:10.090Z,8.60
2023-03-17T23:01:39.255Z,8.70
2023-03-17T23:04:09.148Z,8.80
2023-03-17T23:06:38.154Z,9.00
2023-03-17T23:09:08.512Z,9.00
2023-03-17T23:11:37.532Z,9.20
2023-03-17T23:14:06.271Z,9.20
2023-03-17T23:16:34.701Z,9.20
2023-03-17T23:19:03.159Z,9.30
2023-03-17T23:21:32.678Z,9.40
2023-03-17T23:24:01.490Z,9.50
2023-03-17T23:26:32.126Z,9.60
2023-03-17T23:29:00.778Z,9.50
2023-03-17T23:31:29.152Z,9.60
2023-03-17T23:33:58.283Z,9.50
2023-03-17T23:36:27.141Z,9.40
2023-03-17T23:38:55.581Z,9.20
2023-03-17T23:41:23.993Z,9.20
2023-03-17T23:43:53.850Z,9.10
2023-03-17T23:46:22.346Z,9.10
2023-03-17T23:48:51.035Z,9.00
2023-03-17T23:51:19.506Z,9.00
2023-03-17T23:53:48.111Z,9.00
2023-03-17T23:56:16.624Z,9.10
2023-03-17T23:58:45.073Z,9.00
